Time;durP1;ratioP1;P1;durP2;ratioP2;P2;SDS_P1;SDS_P2;PMS_P1;PMS_P2;Temp;Humidity;BMP_temperature;BMP_pressure;BME280_temperature;BME280_humidity;BME280_pressure;Samples;Min_cycle;Max_cycle;Signal;HPM_P1;HPM_P2
2023/06/16 00:00:14;;;;;;;14.10;5.55;;;;;;;19.25;53.81;101724.06;5097335;28;20089;-59
2023/06/16 00:02:43;;;;;;;8.13;5.85;;;;;;;19.26;53.71;101712.28;5115838;28;20020;-60
2023/06/16 00:05:10;;;;;;;8.38;5.75;;;;;;;19.23;53.66;101717.94;5081438;28;20107;-60
2023/06/16 00:07:36;;;;;;;8.90;5.88;;;;;;;19.13;54.04;101711.63;5115982;28;20027;-60
2023/06/16 00:10:04;;;;;;;11.95;5.90;;;;;;;18.92;54.44;101715.16;5115828;28;20016;-60
2023/06/16 00:12:30;;;;;;;11.32;6.35;;;;;;;18.94;54.36;101701.53;5097732;28;20034;-59
2023/06/16 00:14:58;;;;;;;6.70;5.88;;;;;;;19.01;54.26;101710.84;5114852;28;20031;-60
2023/06/16 00:17:23;;;;;;;9.48;6.95;;;;;;;18.97;54.03;101703.97;5097443;28;20025;-60
2023/06/16 00:19:49;;;;;;;7.40;6.13;;;;;;;19.00;54.08;101704.59;5097119;28;20027;-59
2023/06/16 00:22:15;;;;;;;7.47;6.57;;;;;;;18.80;54.24;101708.13;5097946;28;20409;-60
2023/06/16 00:24:43;;;;;;;8.38;6.20;;;;;;;18.72;54.52;101705.16;5115210;28;20039;-60
2023/06/16 00:27:08;;;;;;;8.40;6.30;;;;;;;18.67;54.52;101710.94;5115475;28;20027;-60
2023/06/16 00:29:34;;;;;;;8.02;6.78;;;;;;;18.81;54.31;101716.06;5115578;28;20377;-59
2023/06/16 00:31:59;;;;;;;10.90;7.20;;;;;;;18.92;53.94;101711.63;5114984;28;20055;-60
2023/06/16 00:34:25;;;;;;;14.57;5.88;;;;;;;18.74;53.97;101716.72;5115035;28;20019;-60
2023/06/16 00:36:50;;;;;;;8.43;6.07;;;;;;;18.70;54.17;101715.22;5115562;28;20458;-60
2023/06/16 00:39:18;;;;;;;10.00;6.10;;;;;;;18.61;54.46;101712.28;5115860;27;20030;-60
2023/06/16 00:41:43;;;;;;;13.35;6.80;;;;;;;18.72;53.96;101713.25;5115033;28;20794;-59
2023/06/16 00:44:08;;;;;;;9.52;6.10;;;;;;;18.75;53.89;101704.94;5096568;28;20039;-60
2023/06/16 00:46:36;;;;;;;9.90;6.15;;;;;;;18.64;54.14;101707.66;5096369;28;20048;-60
2023/06/16 00:49:02;;;;;;;10.23;6.60;;;;;;;18.68;53.87;101717.16;5096750;28;20092;-60
2023/06/16 00:51:30;;;;;;;7.72;6.55;;;;;;;18.63;53.99;101703.25;5096821;28;20395;-60
2023/06/16 00:53:56;;;;;;;9.45;6.70;;;;;;;18.58;53.98;101707.16;5114781;28;20027;-60
2023/06/16 00:56:23;;;;;;;10.30;6.88;;;;;;;18.64;53.85;101710.34;5123766;27;20023;-60
2023/06/16 00:58:52;;;;;;;9.85;6.93;;;;;;;18.34;54.31;101707.38;5135470;27;20030;-59
2023/06/16 01:01:19;;;;;;;12.48;7.15;;;;;;;18.58;53.82;101707.16;5134833;27;20031;-59
2023/06/16 01:03:50;;;;;;;10.13;6.80;;;;;;;18.47;53.98;101709.03;5102009;28;20440;-59
2023/06/16 01:07:02;;;;;;;11.23;7.05;;;;;;;18.47;53.92;101701.84;5114858;28;20027;-59
2023/06/16 01:09:31;;;;;;;10.73;7.15;;;;;;;18.24;54.80;101692.97;5101866;28;20421;-60
2023/06/16 01:11:59;;;;;;;8.63;6.78;;;;;;;18.32;54.52;101700.38;5114585;28;20098;-59
2023/06/16 01:14:39;;;;;;;12.00;7.25;;;;;;;18.07;54.86;101680.88;5114359;27;20032;-60
2023/06/16 01:17:08;;;;;;;10.75;6.65;;;;;;;18.12;54.76;101686.75;5114704;28;20019;-60
2023/06/16 01:19:42;;;;;;;12.43;6.97;;;;;;;18.06;55.21;101689.06;5114644;28;20077;-60
2023/06/16 01:22:42;;;;;;;10.10;6.95;;;;;;;18.12;54.80;101689.44;5114185;28;20050;-60
2023/06/16 01:25:10;;;;;;;10.05;7.20;;;;;;;17.86;55.13;101688.84;5095963;28;20024;-60
2023/06/16 01:27:39;;;;;;;10.73;7.40;;;;;;;18.03;54.94;101697.38;5114605;28;20496;-60
2023/06/16 01:30:06;;;;;;;12.30;7.47;;;;;;;17.91;55.11;101686.66;5107559;28;20020;-60
2023/06/16 01:32:33;;;;;;;10.32;7.55;;;;;;;17.64;55.49;101692.34;5127903;27;20022;-59
2023/06/16 01:34:59;;;;;;;11.20;7.65;;;;;;;17.83;54.68;101685.56;5101061;28;20455;-59
2023/06/16 01:37:26;;;;;;;13.70;7.88;;;;;;;17.87;55.13;101692.38;5113280;28;20034;-60
2023/06/16 01:39:53;;;;;;;13.80;8.30;;;;;;;18.04;54.71;101693.72;5092099;28;20080;-59
2023/06/16 01:42:21;;;;;;;10.48;8.15;;;;;;;17.62;55.69;101672.81;5080748;28;20482;-59
2023/06/16 01:44:47;;;;;;;8.52;7.63;;;;;;;17.82;55.23;101681.97;5112378;28;20027;-60
2023/06/16 01:47:12;;;;;;;11.93;8.02;;;;;;;17.63;55.54;101689.78;5112072;28;20030;-59
2023/06/16 01:49:39;;;;;;;12.88;8.15;;;;;;;17.60;55.79;101690.91;5094779;28;20069;-59
2023/06/16 01:52:07;;;;;;;13.63;8.15;;;;;;;17.53;55.70;101683.41;5094288;28;20023;-59
2023/06/16 01:54:32;;;;;;;10.27;7.93;;;;;;;17.68;55.20;101679.53;5113533;28;20015;-59
2023/06/16 01:56:57;;;;;;;11.20;8.52;;;;;;;17.64;55.34;101684.28;5095380;28;20612;-60
2023/06/16 01:59:23;;;;;;;11.30;8.57;;;;;;;17.64;55.47;101681.59;5113049;28;20031;-59
2023/06/16 02:01:58;;;;;;;12.63;8.30;;;;;;;17.49;56.18;101688.19;5106499;28;20034;-59
2023/06/16 02:04:25;;;;;;;17.20;8.95;;;;;;;17.47;55.80;101684.75;5103398;28;20081;-59
2023/06/16 02:07:04;;;;;;;13.38;8.43;;;;;;;17.33;56.04;101693.06;5112665;28;20430;-59
2023/06/16 02:09:33;;;;;;;10.82;7.82;;;;;;;17.28;56.28;101689.88;5095429;28;20106;-60
2023/06/16 02:11:58;;;;;;;16.57;8.60;;;;;;;17.25;56.03;101680.22;5113150;28;20032;-59
2023/06/16 02:14:27;;;;;;;15.02;8.57;;;;;;;17.23;56.56;101695.59;5112443;28;20398;-60
2023/06/16 02:16:53;;;;;;;14.30;8.43;;;;;;;17.35;56.27;101686.56;5092131;28;20027;-59
2023/06/16 02:19:18;;;;;;;12.90;8.90;;;;;;;17.22;56.44;101686.69;5112588;28;20656;-59
2023/06/16 02:21:44;;;;;;;11.30;8.35;;;;;;;17.38;55.86;101682.78;5099166;28;20024;-59
2023/06/16 02:24:12;;;;;;;10.35;8.85;;;;;;;17.00;56.73;101690.19;5088759;28;20507;-59
2023/06/16 02:26:38;;;;;;;11.95;8.43;;;;;;;17.06;56.81;101696.03;5093672;28;20034;-59
2023/06/16 02:29:03;;;;;;;12.15;8.82;;;;;;;17.08;56.54;101692.28;5112280;28;20031;-59
2023/06/16 02:31:29;;;;;;;12.85;9.23;;;;;;;17.13;56.27;101695.47;5111591;28;20016;-59
2023/06/16 02:33:55;;;;;;;13.23;8.75;;;;;;;16.88;57.16;101696.47;5099202;28;20047;-59
2023/06/16 02:36:21;;;;;;;11.00;9.10;;;;;;;17.12;56.47;101690.19;5111382;28;20425;-59
2023/06/16 02:38:46;;;;;;;12.25;8.50;;;;;;;16.99;56.57;101692.97;5112110;28;20031;-59
2023/06/16 02:41:12;;;;;;;13.32;9.55;;;;;;;17.06;56.45;101696.03;5097210;28;20545;-59
2023/06/16 02:43:40;;;;;;;15.02;8.88;;;;;;;16.99;56.81;101696.53;5107742;28;20035;-59
2023/06/16 02:46:06;;;;;;;12.07;8.75;;;;;;;17.12;56.12;101691.06;5104485;28;20470;-59
2023/06/16 02:48:32;;;;;;;9.88;8.40;;;;;;;17.10;56.30;101693.03;5088613;28;20028;-60
2023/06/16 02:50:57;;;;;;;11.70;9.60;;;;;;;16.85;57.08;101685.13;5111865;28;20024;-59
2023/06/16 02:53:24;;;;;;;12.40;8.68;;;;;;;16.75;57.43;101685.78;5106053;28;20024;-59
2023/06/16 02:55:53;;;;;;;12.52;9.68;;;;;;;16.76;57.36;101683.97;5074052;28;20471;-59
2023/06/16 02:58:20;;;;;;;10.48;8.68;;;;;;;16.93;56.88;101685.41;5087189;28;20780;-59
2023/06/16 03:00:45;;;;;;;12.85;8.82;;;;;;;16.78;57.40;101684.72;5092707;28;20027;-59
2023/06/16 03:03:11;;;;;;;11.40;8.88;;;;;;;16.82;57.27;101685.34;5103171;28;20085;-59
2023/06/16 03:05:36;;;;;;;10.90;9.23;;;;;;;16.69;57.50;101686.25;5107295;27;20043;-59
2023/06/16 03:08:02;;;;;;;10.55;8.85;;;;;;;16.67;57.65;101681.97;5088918;28;20015;-59
2023/06/16 03:10:27;;;;;;;10.77;9.18;;;;;;;16.63;57.75;101691.25;5111138;28;20500;-59
2023/06/16 03:12:53;;;;;;;12.57;9.63;;;;;;;16.64;57.54;101683.03;5111082;28;20106;-59
2023/06/16 03:15:19;;;;;;;10.25;8.88;;;;;;;16.66;57.47;101693.69;5092758;28;20140;-59
2023/06/16 03:17:47;;;;;;;10.85;8.93;;;;;;;16.69;57.44;101697.00;5111676;28;20395;-59
2023/06/16 03:20:12;;;;;;;10.85;8.68;;;;;;;16.63;57.33;101670.59;5091803;28;20027;-59
2023/06/16 03:22:40;;;;;;;13.40;9.98;;;;;;;16.69;57.36;101696.16;5111258;28;20133;-59
2023/06/16 03:25:06;;;;;;;12.23;10.05;;;;;;;16.40;58.13;101692.94;5111846;28;20020;-59
2023/06/16 03:27:31;;;;;;;12.70;10.23;;;;;;;16.55;57.79;101694.47;5111099;28;20027;-59
2023/06/16 03:29:57;;;;;;;19.23;10.02;;;;;;;16.38;58.14;101690.38;5093833;28;20027;-59
2023/06/16 03:32:23;;;;;;;12.57;8.82;;;;;;;16.39;58.50;101701.97;5111924;28;20019;-59
2023/06/16 03:34:49;;;;;;;11.77;8.57;;;;;;;16.41;58.59;101700.88;5112191;28;20020;-59
2023/06/16 03:37:15;;;;;;;16.88;9.90;;;;;;;16.48;58.37;101693.25;5091990;28;20077;-58
2023/06/16 03:39:41;;;;;;;14.57;9.48;;;;;;;16.51;58.10;101699.22;5105487;28;20031;-59
2023/06/16 03:42:07;;;;;;;11.05;9.18;;;;;;;16.48;57.96;101698.63;5111581;28;20043;-59
2023/06/16 03:44:34;;;;;;;12.55;9.35;;;;;;;16.43;58.48;101701.63;5112094;28;20462;-59
2023/06/16 03:47:00;;;;;;;23.33;9.88;;;;;;;16.42;58.29;101691.00;5102743;28;20020;-59
2023/06/16 03:49:26;;;;;;;16.55;10.38;;;;;;;16.37;58.43;101703.91;5102711;28;20085;-59
2023/06/16 03:51:52;;;;;;;15.68;10.40;;;;;;;16.11;59.23;101696.78;5109493;28;20015;-59
2023/06/16 03:54:18;;;;;;;15.93;10.73;;;;;;;16.11;59.31;101701.31;5110733;28;20038;-59
2023/06/16 03:56:45;;;;;;;17.13;11.40;;;;;;;16.10;59.54;101700.44;5084092;28;20056;-59
2023/06/16 03:59:11;;;;;;;17.73;10.43;;;;;;;16.19;59.14;101704.28;5105617;28;20035;-59
2023/06/16 04:01:37;;;;;;;20.52;10.48;;;;;;;16.16;59.42;101700.97;5108596;28;20023;-59
2023/06/16 04:04:07;;;;;;;17.95;10.70;;;;;;;15.99;60.08;101703.06;5109980;28;20059;-59
2023/06/16 04:06:36;;;;;;;15.15;9.82;;;;;;;16.03;60.03;101701.00;5077013;28;20509;-59
2023/06/16 04:09:02;;;;;;;23.38;10.95;;;;;;;15.97;60.18;101701.44;5093170;28;20051;-59
2023/06/16 04:11:29;;;;;;;16.58;10.20;;;;;;;15.94;60.63;101712.41;5093008;28;20478;-59
2023/06/16 04:13:54;;;;;;;16.73;10.07;;;;;;;16.03;60.13;101707.25;5111887;28;20386;-60
2023/06/16 04:16:20;;;;;;;21.38;10.18;;;;;;;16.09;60.21;101711.31;5111314;28;20022;-59
2023/06/16 04:18:48;;;;;;;17.00;10.45;;;;;;;16.22;59.88;101709.44;5111840;28;20024;-59
2023/06/16 04:21:16;;;;;;;13.15;10.93;;;;;;;16.19;60.11;101706.97;5103477;28;20084;-59
2023/06/16 04:23:42;;;;;;;20.30;10.40;;;;;;;16.11;60.26;101712.91;5111517;28;20370;-59
2023/06/16 04:26:08;;;;;;;17.73;11.80;;;;;;;16.25;60.20;101714.59;5111653;28;20028;-59
2023/06/16 04:28:38;;;;;;;17.23;10.95;;;;;;;16.27;60.42;101709.13;5111673;28;20074;-59
2023/06/16 04:31:09;;;;;;;14.65;10.98;;;;;;;16.20;60.71;101715.88;5110614;28;20020;-59
2023/06/16 04:33:36;;;;;;;18.50;10.75;;;;;;;16.30;60.09;101708.88;5111687;28;20031;-59
2023/06/16 04:36:03;;;;;;;17.65;11.52;;;;;;;16.40;60.17;101720.66;5093074;28;20065;-59
2023/06/16 04:38:28;;;;;;;24.58;12.07;;;;;;;16.38;59.96;101717.22;5111970;28;20039;-59
2023/06/16 04:40:54;;;;;;;15.38;12.02;;;;;;;16.43;59.95;101728.47;5113945;28;20024;-59
2023/06/16 04:43:20;;;;;;;15.50;11.88;;;;;;;16.44;59.77;101719.47;5114480;28;20115;-59
2023/06/16 04:45:45;;;;;;;17.92;11.30;;;;;;;16.33;59.70;101714.88;5096223;28;20026;-60
2023/06/16 04:48:10;;;;;;;20.80;11.27;;;;;;;16.46;59.87;101722.03;5114722;28;20106;-59
2023/06/16 04:50:36;;;;;;;14.52;11.48;;;;;;;16.55;59.89;101721.34;5114745;28;20020;-59
2023/06/16 04:53:03;;;;;;;21.73;11.18;;;;;;;16.67;59.09;101722.25;5114983;28;20046;-59
2023/06/16 04:55:30;;;;;;;14.98;11.05;;;;;;;16.80;58.87;101725.78;5097113;28;20374;-59
2023/06/16 04:57:55;;;;;;;23.20;11.55;;;;;;;16.85;58.17;101722.72;5114625;28;20114;-59
2023/06/16 05:00:20;;;;;;;12.52;11.32;;;;;;;16.90;57.60;101721.41;5096232;28;20106;-59
2023/06/16 05:02:46;;;;;;;17.83;11.40;;;;;;;17.03;57.73;101724.03;5114786;28;20110;-59
2023/06/16 05:05:11;;;;;;;17.15;11.65;;;;;;;16.89;57.85;101730.47;5114079;28;20059;-59
2023/06/16 05:07:37;;;;;;;15.98;11.82;;;;;;;17.02;57.62;101725.00;5112254;28;20027;-59
2023/06/16 05:10:03;;;;;;;14.07;11.40;;;;;;;17.25;56.99;101731.31;5110142;28;20028;-59
2023/06/16 05:12:28;;;;;;;16.13;11.40;;;;;;;17.24;57.18;101726.91;5112873;28;20462;-59
2023/06/16 05:14:54;;;;;;;15.93;11.93;;;;;;;17.20;57.97;101728.97;5113768;28;20445;-59
2023/06/16 05:17:19;;;;;;;15.40;11.05;;;;;;;17.30;57.01;101728.28;5113637;28;20032;-59
2023/06/16 05:19:45;;;;;;;16.48;11.77;;;;;;;17.48;55.40;101726.84;5093943;28;20076;-59
2023/06/16 05:22:10;;;;;;;16.38;12.40;;;;;;;17.42;56.45;101738.06;5112996;28;20034;-59
2023/06/16 05:24:36;;;;;;;13.32;11.90;;;;;;;17.33;55.02;101714.59;5089296;28;20020;-59
2023/06/16 05:27:03;;;;;;;16.00;11.85;;;;;;;17.59;53.93;101731.34;5093139;28;20110;-59
2023/06/16 05:29:29;;;;;;;14.32;12.85;;;;;;;17.63;53.89;101733.69;5104877;28;20127;-59
2023/06/16 05:31:54;;;;;;;15.00;12.38;;;;;;;17.76;54.29;101736.25;5109480;28;20015;-59
2023/06/16 05:34:22;;;;;;;15.27;12.43;;;;;;;17.91;52.53;101734.22;5084726;28;20099;-59
2023/06/16 05:36:47;;;;;;;16.70;11.90;;;;;;;17.96;52.89;101731.16;5114145;28;20761;-59
2023/06/16 05:39:13;;;;;;;14.52;10.77;;;;;;;18.05;52.33;101736.66;5113772;28;20031;-60
2023/06/16 05:41:38;;;;;;;19.60;11.38;;;;;;;18.08;52.12;101740.94;5113679;28;20077;-59
2023/06/16 05:44:04;;;;;;;14.02;10.93;;;;;;;18.11;51.82;101730.78;5094611;28;20435;-59
2023/06/16 05:46:30;;;;;;;15.50;11.02;;;;;;;18.19;51.36;101743.63;5095135;28;20480;-60
2023/06/16 05:48:57;;;;;;;13.35;11.70;;;;;;;18.30;52.06;101740.06;5113422;28;20111;-59
2023/06/16 05:51:23;;;;;;;16.92;11.40;;;;;;;18.31;51.74;101726.47;5110138;28;20024;-59
2023/06/16 05:53:48;;;;;;;14.88;11.40;;;;;;;18.41;51.71;101737.34;5112817;28;20046;-60
2023/06/16 05:56:14;;;;;;;13.02;11.65;;;;;;;18.46;51.67;101745.91;5113719;28;20024;-59
2023/06/16 05:58:40;;;;;;;21.45;11.20;;;;;;;18.49;51.93;101731.31;5113631;27;20019;-59
2023/06/16 06:01:06;;;;;;;14.93;11.30;;;;;;;18.65;51.56;101750.66;5093827;28;20027;-59
2023/06/16 06:03:32;;;;;;;15.70;10.80;;;;;;;18.67;52.10;101747.81;5095054;28;20390;-59
2023/06/16 06:05:57;;;;;;;14.60;11.65;;;;;;;18.82;51.79;101751.94;5078467;28;20019;-59
2023/06/16 06:08:27;;;;;;;14.75;11.63;;;;;;;18.91;50.94;101767.34;5113730;28;20501;-59
2023/06/16 06:10:53;;;;;;;15.57;11.52;;;;;;;18.90;52.59;101756.72;5113295;28;20038;-60
2023/06/16 06:13:21;;;;;;;17.23;12.25;;;;;;;19.01;51.58;101762.91;5105104;28;20387;-59
2023/06/16 06:15:47;;;;;;;13.27;11.45;;;;;;;19.11;51.96;101762.13;5074448;28;20383;-60
2023/06/16 06:18:16;;;;;;;12.90;11.65;;;;;;;19.10;52.00;101758.59;5100306;28;20028;-60
2023/06/16 06:20:43;;;;;;;15.68;11.80;;;;;;;19.21;51.64;101763.06;5099479;28;20060;-61
2023/06/16 06:23:08;;;;;;;18.23;11.75;;;;;;;19.31;50.89;101765.84;5114462;27;20431;-60
2023/06/16 06:25:34;;;;;;;14.65;11.52;;;;;;;19.36;50.88;101760.91;5108956;28;20160;-62
2023/06/16 06:27:59;;;;;;;18.02;12.00;;;;;;;19.19;52.45;101757.81;5113333;28;20020;-62
2023/06/16 06:30:27;;;;;;;12.43;11.20;;;;;;;19.39;51.69;101764.19;5093752;28;20114;-62
2023/06/16 06:32:52;;;;;;;12.57;11.27;;;;;;;19.54;50.88;101766.56;5094806;28;20019;-63
2023/06/16 06:35:18;;;;;;;14.43;11.93;;;;;;;19.58;51.94;101773.41;5077297;28;20031;-62
2023/06/16 06:37:45;;;;;;;14.80;10.82;;;;;;;19.59;51.25;101769.69;5104261;28;20111;-60
2023/06/16 06:40:11;;;;;;;15.02;11.73;;;;;;;19.76;51.08;101776.38;5111594;28;20027;-64
2023/06/16 06:42:37;;;;;;;20.50;10.77;;;;;;;19.86;49.13;101763.78;5093664;28;20051;-63
2023/06/16 06:45:02;;;;;;;16.52;10.93;;;;;;;19.93;49.63;101771.19;5092263;28;20395;-63
2023/06/16 06:47:28;;;;;;;17.27;10.73;;;;;;;20.00;49.45;101762.56;5080413;28;20025;-62
2023/06/16 06:49:54;;;;;;;17.45;9.35;;;;;;;20.08;48.00;101773.53;5076371;28;20015;-62
2023/06/16 06:52:20;;;;;;;22.15;9.40;;;;;;;20.20;48.22;101762.47;5112763;28;20100;-61
2023/06/16 06:54:45;;;;;;;12.88;9.75;;;;;;;20.19;46.72;101770.75;5110538;28;20584;-64
2023/06/16 06:57:12;;;;;;;10.43;9.43;;;;;;;20.38;46.54;101772.63;5112813;28;20023;-61
2023/06/16 06:59:40;;;;;;;12.25;8.52;;;;;;;20.51;44.92;101777.81;5111878;28;20020;-63
2023/06/16 07:02:08;;;;;;;12.23;8.88;;;;;;;20.51;44.90;101778.66;5093614;28;20023;-62
2023/06/16 07:04:34;;;;;;;15.65;9.48;;;;;;;20.69;44.42;101781.56;5094160;28;20367;-62
2023/06/16 07:07:00;;;;;;;19.42;7.90;;;;;;;20.69;43.96;101784.28;5094288;28;20026;-62
2023/06/16 07:09:28;;;;;;;11.07;7.75;;;;;;;20.78;44.71;101786.13;5111074;28;20027;-63
2023/06/16 07:11:53;;;;;;;10.20;7.78;;;;;;;20.85;44.06;101795.41;5093976;28;20433;-63
2023/06/16 07:14:19;;;;;;;9.00;7.47;;;;;;;20.80;43.68;101770.63;5111128;28;20028;-64
2023/06/16 07:16:44;;;;;;;14.10;7.70;;;;;;;20.92;42.73;101779.47;5092889;28;20027;-62
2023/06/16 07:19:10;;;;;;;10.70;7.75;;;;;;;21.01;42.86;101785.88;5112302;28;20043;-64
2023/06/16 07:21:38;;;;;;;10.05;7.10;;;;;;;21.06;43.91;101787.16;5110709;28;20031;-63
2023/06/16 07:24:07;;;;;;;10.65;7.55;;;;;;;21.17;42.14;101786.13;5104863;28;20375;-64
2023/06/16 07:26:32;;;;;;;9.23;8.05;;;;;;;21.21;41.69;101773.22;5091658;28;20055;-63
2023/06/16 07:28:59;;;;;;;12.88;6.95;;;;;;;21.28;42.01;101782.44;5073563;28;20089;-63
2023/06/16 07:31:25;;;;;;;11.63;6.70;;;;;;;21.46;41.52;101786.16;5083002;28;20027;-63
2023/06/16 07:33:52;;;;;;;15.32;7.22;;;;;;;21.45;40.04;101787.16;5094252;28;20028;-63
2023/06/16 07:36:18;;;;;;;10.23;6.85;;;;;;;21.40;40.82;101784.03;5111923;28;20055;-63
2023/06/16 07:38:43;;;;;;;9.38;6.75;;;;;;;21.51;40.50;101788.44;5094116;28;20144;-63
2023/06/16 07:41:09;;;;;;;12.50;6.80;;;;;;;21.50;40.34;101784.00;5111560;28;20044;-63
2023/06/16 07:43:35;;;;;;;12.18;6.55;;;;;;;21.51;40.23;101789.28;5094019;28;20023;-64
2023/06/16 07:46:01;;;;;;;16.25;7.05;;;;;;;21.60;39.88;101781.28;5111442;28;20032;-64
2023/06/16 07:48:26;;;;;;;11.50;7.07;;;;;;;21.71;39.80;101789.25;5112114;28;20042;-64
2023/06/16 07:50:53;;;;;;;9.70;6.70;;;;;;;21.78;39.64;101791.22;5112171;28;20662;-63
2023/06/16 07:53:18;;;;;;;28.83;7.10;;;;;;;21.83;40.71;101773.69;5093516;28;20028;-62
2023/06/16 07:55:44;;;;;;;15.60;7.15;;;;;;;21.76;40.58;101776.09;5093994;28;20463;-68
2023/06/16 07:58:09;;;;;;;12.35;6.65;;;;;;;21.51;41.15;101780.31;5111868;28;20054;-64
2023/06/16 08:00:35;;;;;;;8.98;6.63;;;;;;;21.36;41.86;101766.38;5093018;28;20019;-64
2023/06/16 08:03:00;;;;;;;9.50;7.28;;;;;;;21.37;42.01;101776.19;5111637;28;20023;-64
2023/06/16 08:05:26;;;;;;;9.15;6.20;;;;;;;21.41;42.13;101780.31;5111794;28;20466;-64
2023/06/16 08:07:53;;;;;;;12.40;6.63;;;;;;;21.66;40.22;101780.72;5112247;28;20023;-64
2023/06/16 08:10:20;;;;;;;15.43;7.35;;;;;;;21.68;39.13;101762.47;5111850;28;20016;-64
2023/06/16 08:12:49;;;;;;;9.35;6.40;;;;;;;22.07;40.47;101773.16;5111256;28;20118;-64
2023/06/16 08:15:15;;;;;;;10.43;6.55;;;;;;;22.13;41.25;101767.13;5094657;28;20028;-64
2023/06/16 08:17:41;;;;;;;9.45;6.85;;;;;;;22.33;41.10;101786.91;5115538;28;20020;-64
2023/06/16 08:20:07;;;;;;;9.48;5.72;;;;;;;22.47;39.84;101771.97;5097058;28;20028;-64
2023/06/16 08:22:32;;;;;;;6.53;5.63;;;;;;;22.61;38.28;101779.59;5097085;28;20504;-64
2023/06/16 08:24:58;;;;;;;7.65;6.45;;;;;;;22.72;36.74;101775.81;5114927;28;20110;-64
2023/06/16 08:27:24;;;;;;;11.85;6.18;;;;;;;22.83;38.24;101770.19;5114972;28;20038;-64
2023/06/16 08:29:50;;;;;;;10.00;6.70;;;;;;;22.70;36.55;101775.13;5096284;28;20031;-64
2023/06/16 08:32:15;;;;;;;10.45;5.50;;;;;;;22.84;36.87;101772.72;5115300;28;20379;-64
2023/06/16 08:34:43;;;;;;;10.05;5.80;;;;;;;22.83;35.29;101760.16;5115300;28;20027;-65
2023/06/16 08:37:09;;;;;;;8.88;5.25;;;;;;;23.04;35.39;101781.59;5115696;28;20024;-64
2023/06/16 08:39:35;;;;;;;8.30;5.82;;;;;;;22.94;35.13;101769.06;5096461;28;20049;-65
2023/06/16 08:42:01;;;;;;;6.43;5.10;;;;;;;22.92;33.44;101771.09;5096668;28;20035;-64
2023/06/16 08:44:28;;;;;;;6.20;5.30;;;;;;;23.07;34.40;101758.72;5114963;28;20023;-64
2023/06/16 08:46:54;;;;;;;10.40;5.00;;;;;;;23.31;35.35;101768.94;5114794;28;20028;-65
2023/06/16 08:49:19;;;;;;;9.88;5.00;;;;;;;23.18;32.57;101772.06;5096514;28;20034;-65
2023/06/16 08:51:49;;;;;;;8.07;4.85;;;;;;;23.33;33.47;101769.63;5115193;28;20016;-65
2023/06/16 08:54:17;;;;;;;8.43;5.05;;;;;;;23.30;33.54;101770.78;5114982;28;20020;-65
2023/06/16 08:56:46;;;;;;;6.22;4.75;;;;;;;23.51;34.35;101775.03;5096885;28;20034;-65
2023/06/16 08:59:12;;;;;;;12.27;5.43;;;;;;;23.57;33.74;101767.09;5114466;28;20032;-64
2023/06/16 09:01:39;;;;;;;11.23;5.10;;;;;;;23.66;33.16;101757.13;5095983;28;20034;-64
2023/06/16 09:04:09;;;;;;;12.30;4.85;;;;;;;23.75;33.21;101769.78;5114901;28;20072;-65
2023/06/16 09:06:37;;;;;;;7.65;5.10;;;;;;;23.90;32.79;101766.47;5114739;28;20035;-65
2023/06/16 09:09:06;;;;;;;6.63;5.07;;;;;;;23.97;32.46;101771.09;5096392;28;20035;-64
2023/06/16 09:11:34;;;;;;;8.02;5.70;;;;;;;23.94;32.42;101767.84;5114224;28;20057;-65
2023/06/16 09:14:10;;;;;;;7.82;5.32;;;;;;;24.03;33.51;101759.56;5114420;28;20035;-64
2023/06/16 09:16:37;;;;;;;14.40;5.18;;;;;;;24.16;33.68;101763.69;5095707;28;20024;-62
2023/06/16 09:19:07;;;;;;;8.38;4.75;;;;;;;24.21;32.74;101770.34;5096250;28;20026;-65
2023/06/16 09:21:33;;;;;;;8.63;4.80;;;;;;;24.05;31.87;101764.84;5095717;28;20035;-65
2023/06/16 09:24:00;;;;;;;11.07;5.35;;;;;;;24.15;32.49;101764.69;5095935;28;20026;-65
2023/06/16 09:26:30;;;;;;;10.55;4.88;;;;;;;24.35;32.61;101770.72;5113763;28;20024;-66
2023/06/16 09:28:56;;;;;;;6.72;4.40;;;;;;;24.44;33.40;101770.66;5114469;28;20027;-67
2023/06/16 09:31:23;;;;;;;8.82;4.50;;;;;;;24.47;32.31;101769.44;5095215;28;20030;-65
2023/06/16 09:33:49;;;;;;;5.28;4.65;;;;;;;24.52;33.15;101764.34;5114187;28;20028;-69
2023/06/16 09:36:27;;;;;;;8.75;4.47;;;;;;;24.64;32.63;101771.19;5113940;28;20029;-67
2023/06/16 09:38:52;;;;;;;6.68;4.60;;;;;;;24.78;31.59;101768.84;5114560;28;20498;-67
2023/06/16 09:41:18;;;;;;;8.10;5.40;;;;;;;24.74;31.84;101760.19;5113190;28;20071;-66
2023/06/16 09:43:44;;;;;;;7.85;5.10;;;;;;;24.91;32.32;101756.47;5114032;28;20031;-66
2023/06/16 09:46:13;;;;;;;6.43;4.95;;;;;;;24.88;31.18;101761.38;5113403;28;20382;-67
2023/06/16 09:48:51;;;;;;;8.85;5.15;;;;;;;24.83;31.56;101759.16;5113744;28;20039;-68
2023/06/16 09:51:17;;;;;;;10.30;4.88;;;;;;;24.85;31.49;101757.09;5095281;28;20471;-67
2023/06/16 09:53:45;;;;;;;5.20;4.45;;;;;;;25.10;30.77;101752.53;5095572;28;20034;-64
2023/06/16 09:56:14;;;;;;;6.95;3.88;;;;;;;25.11;31.64;101745.22;5095310;28;20027;-64
2023/06/16 09:58:43;;;;;;;6.82;4.50;;;;;;;25.29;30.47;101758.69;5113755;28;20106;-63
2023/06/16 10:01:13;;;;;;;6.20;4.75;;;;;;;25.36;30.42;101751.53;5113071;28;20035;-63
2023/06/16 10:03:43;;;;;;;5.47;4.72;;;;;;;25.48;29.69;101741.16;5094791;28;20397;-63
2023/06/16 10:06:20;;;;;;;8.02;4.38;;;;;;;25.46;30.24;101752.19;5095323;28;20452;-63
2023/06/16 10:08:50;;;;;;;8.73;4.47;;;;;;;25.45;30.68;101744.22;5095391;28;20028;-63
2023/06/16 10:11:17;;;;;;;9.15;4.60;;;;;;;25.66;30.83;101740.94;5095066;28;20477;-63
2023/06/16 10:13:51;;;;;;;5.28;3.90;;;;;;;25.55;28.59;101737.53;5113424;28;20591;-63
2023/06/16 10:16:20;;;;;;;6.80;4.55;;;;;;;25.66;29.60;101735.50;5112576;28;20478;-63
2023/06/16 10:18:47;;;;;;;;;;;;;;;25.77;30.71;101743.28;5095629;28;20394;-63
2023/06/16 10:21:12;;;;;;;4.75;4.35;;;;;;;25.78;28.77;101743.09;5111174;28;19957;-61
2023/06/16 10:23:38;;;;;;;6.50;4.60;;;;;;;25.86;28.80;101736.81;5087281;28;20024;-61
2023/06/16 10:26:07;;;;;;;4.32;3.92;;;;;;;25.71;28.34;101739.41;5111360;28;20057;-61
2023/06/16 10:28:37;;;;;;;17.17;4.50;;;;;;;25.86;28.70;101741.44;5094549;28;20027;-61
2023/06/16 10:31:04;;;;;;;4.93;4.05;;;;;;;25.79;28.45;101739.34;5093228;28;20049;-63
2023/06/16 10:33:56;;;;;;;6.85;3.95;;;;;;;25.87;29.52;101730.34;5112769;27;20383;-63
2023/06/16 10:36:29;;;;;;;6.07;4.50;;;;;;;25.92;29.97;101733.38;5094541;28;20056;-63
2023/06/16 10:38:57;;;;;;;5.90;4.55;;;;;;;26.00;28.90;101727.03;5110891;28;20027;-63
2023/06/16 10:41:22;;;;;;;5.22;4.00;;;;;;;25.86;29.17;101714.16;5094562;28;20486;-62
2023/06/16 10:43:50;;;;;;;7.72;4.82;;;;;;;25.89;28.68;101724.72;5094937;28;20033;-63
2023/06/16 10:46:18;;;;;;;6.97;4.22;;;;;;;25.86;28.66;101725.91;5111924;28;20073;-63
2023/06/16 10:48:56;;;;;;;5.35;4.82;;;;;;;26.01;29.10;101723.31;5094496;28;20051;-63
2023/06/16 10:51:41;;;;;;;11.68;4.80;;;;;;;26.14;29.36;101723.56;5112747;28;20049;-63
2023/06/16 10:54:10;;;;;;;7.88;4.35;;;;;;;25.92;27.78;101714.31;5097499;28;20023;-63
2023/06/16 10:57:05;;;;;;;5.82;4.30;;;;;;;26.16;28.85;101718.78;5103128;28;20026;-63
2023/06/16 10:59:50;;;;;;;4.60;4.20;;;;;;;26.20;27.61;101705.66;5112483;28;20107;-70
2023/06/16 11:02:24;;;;;;;9.55;4.60;;;;;;;26.28;28.38;101716.53;5087001;28;20039;-70
2023/06/16 11:05:08;;;;;;;5.18;4.30;;;;;;;26.40;28.42;101709.63;5093383;28;20081;-69
2023/06/16 11:07:58;;;;;;;5.57;4.47;;;;;;;26.59;27.75;101708.34;5110566;28;20032;-67
2023/06/16 11:10:24;;;;;;;7.97;4.47;;;;;;;26.56;27.02;101708.72;5083306;28;20059;-68
2023/06/16 11:12:50;;;;;;;5.78;4.63;;;;;;;26.35;27.43;101711.19;5098422;28;20012;-64
2023/06/16 11:15:15;;;;;;;6.78;4.30;;;;;;;26.40;26.86;101709.63;5093449;28;20023;-64
2023/06/16 11:17:45;;;;;;;7.18;4.43;;;;;;;26.32;27.23;101700.63;5094019;28;20023;-63